Time;durP1;ratioP1;P1;durP2;ratioP2;P2;SDS_P1;SDS_P2;PMS_P1;PMS_P2;Temp;Humidity;BMP_temperature;BMP_pressure;BME280_temperature;BME280_humidity;BME280_pressure;Samples;Min_cycle;Max_cycle;Signal;HPM_P1;HPM_P2
2024/03/25 00:01:36;;;;;;;13.63;4.22;;;5.80;99.90;;;;;;5061456;28;20051;-81
2024/03/25 00:04:02;;;;;;;13.98;4.15;;;5.70;99.90;;;;;;5054074;28;20072;-81
2024/03/25 00:06:28;;;;;;;14.52;4.28;;;5.70;99.90;;;;;;5061609;28;20400;-81
2024/03/25 00:08:54;;;;;;;13.13;3.65;;;5.70;99.90;;;;;;5063408;28;20052;-81
2024/03/25 00:11:20;;;;;;;13.90;3.25;;;5.70;99.90;;;;;;5057234;28;20037;-82
2024/03/25 00:13:46;;;;;;;14.30;3.90;;;5.70;99.90;;;;;;5061111;28;20079;-81
2024/03/25 00:16:12;;;;;;;15.25;4.13;;;5.60;99.90;;;;;;5052170;28;20124;-81
2024/03/25 00:18:41;;;;;;;15.55;4.07;;;5.60;99.90;;;;;;5066596;28;20123;-82
2024/03/25 00:21:06;;;;;;;15.23;4.45;;;5.60;99.90;;;;;;5069493;28;20079;-81
2024/03/25 00:23:32;;;;;;;15.73;4.05;;;5.50;99.90;;;;;;5062718;28;20082;-81
2024/03/25 00:25:58;;;;;;;16.17;4.55;;;5.50;99.90;;;;;;5061444;28;20079;-81
2024/03/25 00:28:24;;;;;;;12.18;3.45;;;5.50;99.90;;;;;;5067448;28;20121;-81
2024/03/25 00:30:50;;;;;;;16.85;3.83;;;5.40;99.90;;;;;;5057138;28;20401;-81
2024/03/25 00:33:16;;;;;;;17.05;4.88;;;5.40;99.90;;;;;;5048136;28;20036;-81
2024/03/25 00:35:43;;;;;;;14.77;3.60;;;5.40;99.90;;;;;;5050784;28;20049;-81
2024/03/25 00:38:09;;;;;;;14.52;3.38;;;5.30;99.90;;;;;;5048042;28;20118;-81
2024/03/25 00:40:34;;;;;;;13.10;4.07;;;5.50;99.90;;;;;;5044825;28;20453;-80
2024/03/25 00:43:00;;;;;;;12.20;3.50;;;5.40;99.90;;;;;;5049341;28;20052;-80
2024/03/25 00:45:30;;;;;;;17.70;4.85;;;5.40;99.90;;;;;;5067502;28;20044;-80
2024/03/25 00:47:57;;;;;;;22.95;5.25;;;5.50;99.90;;;;;;5056585;28;20515;-81
2024/03/25 00:50:22;;;;;;;18.20;4.50;;;5.50;99.90;;;;;;5057066;28;20531;-81
2024/03/25 00:52:48;;;;;;;16.67;5.30;;;5.50;99.90;;;;;;5050870;28;20048;-81
2024/03/25 00:55:14;;;;;;;16.95;4.97;;;5.40;99.90;;;;;;5054361;28;20053;-81
2024/03/25 00:57:40;;;;;;;18.42;5.00;;;5.50;99.90;;;;;;5048164;28;20158;-80
2024/03/25 01:00:06;;;;;;;16.75;3.97;;;5.40;99.90;;;;;;5065867;28;20040;-81
2024/03/25 01:02:33;;;;;;;19.77;4.28;;;5.40;99.90;;;;;;5063934;28;20055;-81
2024/03/25 01:04:59;;;;;;;20.60;4.35;;;5.40;99.90;;;;;;5060625;28;20166;-81
2024/03/25 01:07:25;;;;;;;16.55;5.18;;;5.40;99.90;;;;;;5060422;28;20500;-81
2024/03/25 01:09:51;;;;;;;17.65;4.28;;;5.40;99.90;;;;;;5060440;28;20041;-81
2024/03/25 01:12:17;;;;;;;19.25;4.28;;;5.40;99.90;;;;;;5051757;28;20075;-81
2024/03/25 01:14:43;;;;;;;18.67;4.47;;;5.40;99.90;;;;;;5056320;28;20057;-81
2024/03/25 01:17:08;;;;;;;18.45;5.00;;;5.40;99.90;;;;;;5052396;28;20485;-81
2024/03/25 01:19:34;;;;;;;13.70;4.28;;;5.40;99.90;;;;;;5061248;28;20037;-81
2024/03/25 01:22:00;;;;;;;15.93;4.00;;;5.40;99.90;;;;;;5061546;28;20052;-81
2024/03/25 01:24:25;;;;;;;23.70;4.85;;;5.40;99.90;;;;;;5045217;28;20040;-81
2024/03/25 01:26:51;;;;;;;21.80;5.28;;;5.50;99.90;;;;;;5052763;28;20416;-81
2024/03/25 01:29:18;;;;;;;20.15;4.57;;;5.50;99.90;;;;;;5065137;28;20067;-81
2024/03/25 01:31:44;;;;;;;18.00;5.10;;;5.50;99.90;;;;;;5056814;28;20040;-81
2024/03/25 01:34:10;;;;;;;19.13;5.35;;;5.50;99.90;;;;;;5055973;28;20056;-81
2024/03/25 01:36:36;;;;;;;19.83;4.70;;;5.50;99.90;;;;;;5066106;28;20075;-81
2024/03/25 01:39:04;;;;;;;19.63;5.30;;;5.40;99.90;;;;;;5048665;28;20126;-81
2024/03/25 01:41:30;;;;;;;17.40;4.63;;;5.50;99.90;;;;;;5052314;28;20063;-81
2024/03/25 01:43:59;;;;;;;20.92;5.32;;;5.40;99.90;;;;;;5050542;28;20049;-81
2024/03/25 01:46:25;;;;;;;17.98;5.63;;;5.40;99.90;;;;;;5072470;28;20151;-81
2024/03/25 01:48:53;;;;;;;19.00;4.80;;;5.40;99.90;;;;;;5035825;28;20072;-81
2024/03/25 01:51:21;;;;;;;21.40;5.40;;;5.40;99.90;;;;;;5058224;28;20123;-82
2024/03/25 01:53:48;;;;;;;24.63;4.57;;;5.40;99.90;;;;;;5040081;28;20084;-81
2024/03/25 01:56:15;;;;;;;19.48;4.80;;;5.40;99.90;;;;;;5069958;28;20055;-81
2024/03/25 01:58:41;;;;;;;17.70;5.15;;;5.50;99.90;;;;;;5061410;28;20052;-81
2024/03/25 02:01:13;;;;;;;24.73;5.00;;;5.40;99.90;;;;;;5051579;28;20064;-81
2024/03/25 02:03:40;;;;;;;21.63;5.85;;;5.40;99.90;;;;;;5049311;28;20101;-82
2024/03/25 02:06:12;;;;;;;17.88;5.28;;;5.40;99.90;;;;;;5032163;28;20425;-82
2024/03/25 02:08:42;;;;;;;22.45;5.75;;;5.40;99.90;;;;;;5053871;28;20051;-82
2024/03/25 02:11:13;;;;;;;19.60;5.10;;;5.40;99.90;;;;;;5057404;28;20036;-81
2024/03/25 02:13:39;;;;;;;15.48;4.35;;;5.40;99.90;;;;;;5051589;28;20040;-82
2024/03/25 02:16:05;;;;;;;18.35;4.80;;;5.40;99.90;;;;;;5074352;28;20044;-81
2024/03/25 02:18:31;;;;;;;20.45;4.53;;;5.30;99.90;;;;;;5065113;28;20041;-82
2024/03/25 02:21:01;;;;;;;22.35;4.95;;;5.40;99.90;;;;;;5052921;28;20037;-82
2024/03/25 02:23:30;;;;;;;24.30;5.28;;;5.30;99.90;;;;;;5056505;28;20677;-82
2024/03/25 02:25:56;;;;;;;16.58;5.20;;;5.30;99.90;;;;;;5066266;28;20036;-81
2024/03/25 02:28:21;;;;;;;16.50;4.28;;;5.30;99.90;;;;;;5053978;28;20033;-81
2024/03/25 02:30:47;;;;;;;18.55;5.15;;;5.30;99.90;;;;;;5067630;28;20052;-82
2024/03/25 02:33:14;;;;;;;25.55;5.82;;;5.40;99.90;;;;;;5052623;28;20134;-82
2024/03/25 02:35:41;;;;;;;22.60;5.93;;;5.40;99.90;;;;;;5061247;28;20044;-82
2024/03/25 02:38:08;;;;;;;18.67;4.50;;;5.40;99.90;;;;;;5049919;28;20075;-81
2024/03/25 02:40:35;;;;;;;19.33;4.40;;;5.30;99.90;;;;;;5050616;28;20044;-82
2024/03/25 02:43:01;;;;;;;16.88;4.13;;;5.30;99.90;;;;;;5045281;28;20518;-82
2024/03/25 02:45:26;;;;;;;19.13;4.55;;;5.30;99.90;;;;;;5047263;28;20422;-81
2024/03/25 02:47:52;;;;;;;22.85;4.78;;;5.30;99.90;;;;;;5037294;28;20086;-82
2024/03/25 02:50:18;;;;;;;25.15;4.63;;;5.20;99.90;;;;;;5061629;28;20036;-81
2024/03/25 02:52:44;;;;;;;20.02;4.38;;;5.30;99.90;;;;;;5058310;28;20083;-82
2024/03/25 02:55:09;;;;;;;17.85;4.13;;;5.20;99.90;;;;;;5057355;28;20041;-82
2024/03/25 02:57:35;;;;;;;19.10;4.53;;;5.30;99.90;;;;;;5046254;28;20045;-82
2024/03/25 03:00:01;;;;;;;26.13;5.20;;;5.20;99.90;;;;;;5069442;28;20041;-82
2024/03/25 03:02:27;;;;;;;20.90;4.57;;;5.20;99.90;;;;;;5050407;28;20184;-82
2024/03/25 03:04:53;;;;;;;18.92;4.25;;;5.30;99.90;;;;;;5050065;28;20140;-82
2024/03/25 03:07:19;;;;;;;20.15;4.38;;;5.30;99.90;;;;;;5050853;28;20389;-82
2024/03/25 03:09:45;;;;;;;16.35;3.90;;;5.30;99.90;;;;;;5058075;28;20056;-82
2024/03/25 03:12:10;;;;;;;22.48;4.60;;;5.20;99.90;;;;;;5048231;28;20493;-82
2024/03/25 03:14:36;;;;;;;20.02;4.95;;;5.30;99.90;;;;;;5065653;28;20076;-82
2024/03/25 03:17:04;;;;;;;15.82;4.35;;;5.30;99.90;;;;;;5055046;28;20040;-82
2024/03/25 03:19:31;;;;;;;16.75;4.30;;;5.30;99.90;;;;;;5032334;28;20603;-82
2024/03/25 03:21:56;;;;;;;15.13;4.15;;;5.20;99.90;;;;;;5065837;28;20029;-81
2024/03/25 03:24:22;;;;;;;21.50;4.75;;;5.30;99.90;;;;;;5039128;28;20110;-81
2024/03/25 03:26:48;;;;;;;18.65;4.63;;;5.20;99.90;;;;;;5049661;28;20110;-82
2024/03/25 03:29:14;;;;;;;21.02;4.43;;;5.30;99.90;;;;;;5062068;28;20032;-82
2024/03/25 03:31:40;;;;;;;16.65;4.18;;;5.20;99.90;;;;;;5054978;28;20404;-82
2024/03/25 03:34:06;;;;;;;16.98;4.35;;;5.20;99.90;;;;;;5063583;28;20489;-82
2024/03/25 03:36:32;;;;;;;21.00;4.68;;;5.20;99.90;;;;;;5064299;28;20069;-82
2024/03/25 03:38:57;;;;;;;17.70;4.00;;;5.20;99.90;;;;;;5047871;28;20052;-82
2024/03/25 03:41:23;;;;;;;20.52;4.57;;;5.20;99.90;;;;;;5050899;28;20138;-83
2024/03/25 03:43:49;;;;;;;20.73;4.63;;;5.20;99.90;;;;;;5055172;28;20048;-81
2024/03/25 03:46:15;;;;;;;17.70;4.53;;;5.20;99.90;;;;;;5051850;28;20053;-82
2024/03/25 03:48:40;;;;;;;21.10;4.10;;;5.20;99.90;;;;;;5057158;28;20052;-82
2024/03/25 03:51:07;;;;;;;18.13;4.40;;;5.20;99.90;;;;;;5058426;28;20032;-82
2024/03/25 03:53:34;;;;;;;16.63;4.53;;;5.10;99.90;;;;;;5060535;28;20045;-82
2024/03/25 03:56:02;;;;;;;18.13;4.07;;;5.10;99.90;;;;;;5058981;28;20588;-82
2024/03/25 03:58:28;;;;;;;19.77;4.10;;;5.10;99.90;;;;;;5050862;28;20045;-82
2024/03/25 04:00:54;;;;;;;15.40;4.18;;;5.10;99.90;;;;;;5053013;28;20040;-82
2024/03/25 04:03:20;;;;;;;12.60;3.85;;;5.10;99.90;;;;;;5039610;28;20041;-81
2024/03/25 04:05:46;;;;;;;22.17;4.63;;;5.10;99.90;;;;;;5041089;28;20041;-81
2024/03/25 04:08:15;;;;;;;18.67;4.55;;;5.10;99.90;;;;;;5049333;28;20124;-82
2024/03/25 04:10:43;;;;;;;17.50;3.72;;;5.10;99.90;;;;;;5053508;28;20147;-81
2024/03/25 04:13:09;;;;;;;21.63;4.72;;;5.20;99.90;;;;;;5059167;28;20043;-81
2024/03/25 04:15:36;;;;;;;18.05;4.60;;;5.10;99.90;;;;;;5045339;28;20405;-82
2024/03/25 04:18:02;;;;;;;22.67;4.82;;;5.10;99.90;;;;;;5048444;28;20064;-82
2024/03/25 04:20:31;;;;;;;21.45;4.43;;;5.10;99.90;;;;;;5047385;28;20040;-81
2024/03/25 04:22:57;;;;;;;19.02;4.40;;;5.10;99.90;;;;;;5073754;28;20060;-81
2024/03/25 04:25:23;;;;;;;22.52;4.70;;;5.10;99.90;;;;;;5050058;28;20083;-81
2024/03/25 04:27:48;;;;;;;19.65;4.28;;;5.10;99.90;;;;;;5055954;28;20045;-81
2024/03/25 04:30:14;;;;;;;18.92;3.90;;;5.10;99.90;;;;;;5048881;28;20174;-81
2024/03/25 04:32:40;;;;;;;16.00;4.30;;;5.10;99.90;;;;;;5031704;28;20514;-81
2024/03/25 04:35:07;;;;;;;15.82;4.05;;;5.10;99.90;;;;;;5051376;28;20512;-81
2024/03/25 04:37:34;;;;;;;16.20;4.45;;;5.10;99.90;;;;;;5042183;28;20053;-81
2024/03/25 04:40:00;;;;;;;19.05;4.32;;;5.10;99.90;;;;;;5042698;28;20037;-81
2024/03/25 04:42:26;;;;;;;16.15;3.65;;;5.10;99.90;;;;;;5047793;28;20124;-81
2024/03/25 04:44:52;;;;;;;20.02;4.45;;;5.10;99.90;;;;;;5053701;28;20128;-81
2024/03/25 04:47:18;;;;;;;12.75;3.45;;;5.10;99.90;;;;;;5038486;28;20036;-81
2024/03/25 04:49:44;;;;;;;18.83;3.95;;;5.10;99.90;;;;;;5047357;28;20048;-81
2024/03/25 04:52:17;;;;;;;18.30;4.50;;;5.10;99.90;;;;;;5034071;28;20037;-81
2024/03/25 04:54:44;;;;;;;19.50;3.55;;;5.00;99.90;;;;;;5056719;28;20048;-81
2024/03/25 04:57:09;;;;;;;16.63;3.92;;;5.00;99.90;;;;;;5054336;28;20040;-81
2024/03/25 04:59:35;;;;;;;16.25;4.25;;;5.00;99.90;;;;;;5048905;28;20095;-81
2024/03/25 05:02:02;;;;;;;16.48;3.63;;;4.90;99.90;;;;;;5038397;28;20049;-81
2024/03/25 05:04:27;;;;;;;15.65;3.97;;;4.90;99.90;;;;;;5042955;28;20128;-81
2024/03/25 05:06:53;;;;;;;17.80;4.30;;;4.80;99.90;;;;;;5034430;28;20119;-81
2024/03/25 05:09:19;;;;;;;16.27;4.93;;;4.80;99.90;;;;;;5054965;28;20501;-81
2024/03/25 05:11:45;;;;;;;15.73;3.75;;;4.70;99.90;;;;;;5071638;28;20054;-81
2024/03/25 05:14:11;;;;;;;17.48;4.45;;;4.60;99.90;;;;;;5042315;28;20037;-80
2024/03/25 05:16:37;;;;;;;17.50;3.92;;;4.60;99.90;;;;;;5070383;28;20068;-81
2024/03/25 05:19:06;;;;;;;22.10;4.65;;;4.50;99.90;;;;;;5066487;28;20049;-81
2024/03/25 05:21:32;;;;;;;19.52;4.60;;;4.40;99.90;;;;;;5052192;28;20132;-81
2024/03/25 05:23:58;;;;;;;19.30;5.28;;;4.40;99.90;;;;;;5044140;28;20055;-80
2024/03/25 05:26:24;;;;;;;13.88;3.95;;;4.40;99.90;;;;;;5062744;28;20044;-81
2024/03/25 05:28:57;;;;;;;15.27;4.47;;;4.30;99.90;;;;;;5067414;28;20072;-81
2024/03/25 05:31:23;;;;;;;18.65;4.20;;;4.30;99.90;;;;;;5053453;28;20064;-81
2024/03/25 05:33:49;;;;;;;11.95;4.28;;;4.30;99.90;;;;;;5041308;28;20505;-81
2024/03/25 05:36:15;;;;;;;19.27;4.55;;;4.30;99.90;;;;;;5037020;28;20511;-81
2024/03/25 05:38:44;;;;;;;22.35;4.95;;;4.30;99.90;;;;;;5074805;28;20037;-80
2024/03/25 05:41:10;;;;;;;16.80;4.20;;;4.30;99.90;;;;;;5073119;28;20108;-81
2024/03/25 05:43:37;;;;;;;17.17;4.50;;;4.30;99.90;;;;;;5046074;28;20041;-81
2024/03/25 05:46:07;;;;;;;13.73;4.30;;;4.30;99.90;;;;;;5051244;28;20045;-80
2024/03/25 05:48:32;;;;;;;19.88;5.55;;;4.30;99.90;;;;;;5035150;28;20115;-81
2024/03/25 05:50:58;;;;;;;11.63;3.65;;;4.30;99.90;;;;;;5048865;28;20053;-81
2024/03/25 05:53:24;;;;;;;15.10;3.80;;;4.30;99.90;;;;;;5050476;28;20048;-81
2024/03/25 05:55:50;;;;;;;15.65;4.32;;;4.30;99.90;;;;;;5052031;28;20104;-81
2024/03/25 05:58:16;;;;;;;20.52;5.82;;;4.30;99.90;;;;;;5057414;28;20123;-81
2024/03/25 06:00:41;;;;;;;16.42;4.78;;;4.30;99.90;;;;;;5050620;28;20045;-80
2024/03/25 06:03:10;;;;;;;20.25;5.45;;;4.30;99.90;;;;;;5042841;28;20033;-81
2024/03/25 06:05:36;;;;;;;18.98;5.55;;;4.30;99.90;;;;;;5049595;28;20040;-80
2024/03/25 06:08:03;;;;;;;15.48;4.90;;;4.30;99.90;;;;;;5054669;28;20044;-80
2024/03/25 06:10:28;;;;;;;18.27;5.18;;;4.30;99.90;;;;;;5049622;28;20045;-80
2024/03/25 06:12:54;;;;;;;13.07;4.55;;;4.20;99.90;;;;;;5059935;28;20032;-81
2024/03/25 06:15:20;;;;;;;20.55;5.28;;;4.20;99.90;;;;;;5059540;28;20052;-81
2024/03/25 06:17:46;;;;;;;12.65;4.43;;;4.20;99.90;;;;;;5052157;28;20041;-80
2024/03/25 06:20:11;;;;;;;13.48;4.80;;;4.20;99.90;;;;;;5056128;28;20086;-80
2024/03/25 06:22:37;;;;;;;23.65;4.75;;;4.30;99.90;;;;;;5053583;28;20043;-80
2024/03/25 06:25:03;;;;;;;17.67;5.45;;;4.40;99.90;;;;;;5052835;28;20394;-81
2024/03/25 06:27:31;;;;;;;19.08;5.50;;;4.40;99.90;;;;;;5078266;28;20048;-80
2024/03/25 06:34:14;;;;;;;18.02;5.22;;;4.50;99.90;;;;;;5058269;28;20075;-80
2024/03/25 06:35:27;;;;;;;19.13;4.60;;;4.70;99.90;;;;;;5062492;28;20171;-80
2024/03/25 06:37:53;;;;;;;20.08;4.45;;;4.80;99.90;;;;;;5053049;28;20643;-80
2024/03/25 06:40:19;;;;;;;16.83;5.05;;;4.80;99.90;;;;;;5042027;28;20085;-80
2024/03/25 06:42:44;;;;;;;18.77;4.85;;;4.80;99.90;;;;;;5054304;28;20049;-80
2024/03/25 06:45:10;;;;;;;16.58;4.43;;;4.90;99.90;;;;;;5057781;28;20048;-81
2024/03/25 06:47:36;;;;;;;15.85;4.13;;;5.00;99.90;;;;;;5063865;28;20490;-85
2024/03/25 06:50:02;;;;;;;15.50;4.28;;;4.90;99.90;;;;;;5062588;28;20040;-85
2024/03/25 06:52:28;;;;;;;18.83;4.25;;;4.90;99.90;;;;;;5049051;28;20075;-85
2024/03/25 06:54:54;;;;;;;14.07;4.07;;;5.00;99.90;;;;;;5047594;28;20078;-85
2024/03/25 06:57:19;;;;;;;16.67;4.68;;;5.10;99.90;;;;;;5080473;28;20044;-86
2024/03/25 06:59:46;;;;;;;19.45;4.00;;;5.00;99.90;;;;;;5049693;28;20503;-85
2024/03/25 07:02:11;;;;;;;18.40;3.83;;;5.10;99.90;;;;;;5049013;28;20527;-85
2024/03/25 07:04:37;;;;;;;14.05;3.58;;;5.20;99.90;;;;;;5064115;28;20071;-86
2024/03/25 07:07:04;;;;;;;16.13;3.80;;;5.30;99.90;;;;;;5061832;28;20102;-88
2024/03/25 07:09:30;;;;;;;18.58;4.32;;;5.40;99.90;;;;;;5049877;28;20040;-90
2024/03/25 07:11:56;;;;;;;16.75;4.85;;;5.50;99.90;;;;;;5070620;28;20108;-91
2024/03/25 07:14:22;;;;;;;16.52;3.55;;;5.60;99.90;;;;;;5052088;28;20055;-90
2024/03/25 07:16:50;;;;;;;15.45;3.60;;;5.70;99.90;;;;;;5067530;28;20040;-89
2024/03/25 07:19:16;;;;;;;19.05;4.20;;;5.80;99.90;;;;;;5046541;28;20428;-89
2024/03/25 07:21:44;;;;;;;15.13;4.53;;;5.90;99.90;;;;;;5070280;28;20032;-90
2024/03/25 07:24:10;;;;;;;17.20;4.55;;;6.10;99.90;;;;;;5065635;28;20036;-90
2024/03/25 07:26:36;;;;;;;17.45;4.18;;;6.30;99.90;;;;;;5051886;28;20059;-90
2024/03/25 07:29:13;;;;;;;16.83;3.75;;;6.40;99.90;;;;;;5068128;28;20041;-90
2024/03/25 07:31:39;;;;;;;17.63;4.70;;;6.50;99.90;;;;;;5048442;28;20396;-90
2024/03/25 07:34:04;;;;;;;13.85;3.95;;;6.80;99.90;;;;;;5067446;28;20054;-90
2024/03/25 07:36:34;;;;;;;15.95;3.90;;;6.80;99.90;;;;;;5050474;28;20072;-91
2024/03/25 07:39:02;;;;;;;18.85;3.83;;;6.80;99.90;;;;;;5068485;28;20046;-89
2024/03/25 07:41:28;;;;;;;13.20;3.38;;;6.80;99.90;;;;;;5065286;28;20045;-91
2024/03/25 07:44:04;;;;;;;11.27;2.70;;;6.80;99.90;;;;;;5067250;28;20115;-90
2024/03/25 07:46:30;;;;;;;13.70;3.20;;;6.90;99.90;;;;;;5050663;28;20051;-91
2024/03/25 07:48:57;;;;;;;14.25;2.70;;;7.10;99.90;;;;;;5051363;28;20044;-90
2024/03/25 07:51:24;;;;;;;10.93;2.80;;;7.20;99.90;;;;;;5062066;28;20053;-91
2024/03/25 07:53:50;;;;;;;10.85;2.65;;;7.30;99.90;;;;;;5052538;28;20045;-91
2024/03/25 07:56:21;;;;;;;11.98;2.72;;;7.50;99.90;;;;;;5069091;28;20044;-91
2024/03/25 07:58:50;;;;;;;12.23;2.97;;;7.50;99.90;;;;;;5067973;28;20049;-92
2024/03/25 08:01:25;;;;;;;12.70;3.03;;;7.70;99.90;;;;;;5051612;28;20041;-91
2024/03/25 08:03:53;;;;;;;12.50;3.17;;;7.90;99.90;;;;;;5052983;28;20585;-91
2024/03/25 08:06:21;;;;;;;13.80;2.85;;;8.00;99.90;;;;;;5066536;28;20072;-91
2024/03/25 08:08:50;;;;;;;14.25;3.00;;;8.20;99.90;;;;;;5050795;28;20033;-90
2024/03/25 08:11:16;;;;;;;10.40;2.25;;;8.30;99.90;;;;;;5054113;28;20131;-90
2024/03/25 08:13:47;;;;;;;12.27;2.75;;;8.40;99.90;;;;;;5058141;28;20048;-91
2024/03/25 08:16:13;;;;;;;12.30;2.83;;;8.60;99.90;;;;;;5056004;28;20040;-91
2024/03/25 08:18:42;;;;;;;11.00;2.72;;;8.70;99.90;;;;;;5054001;28;20857;-91
2024/03/25 08:21:08;;;;;;;9.60;2.78;;;8.80;99.90;;;;;;5072492;28;20044;-90
2024/03/25 08:23:40;;;;;;;11.15;2.83;;;8.70;99.90;;;;;;5054829;28;20033;-91
2024/03/25 08:26:06;;;;;;;12.63;2.92;;;8.70;99.90;;;;;;5072703;28;20079;-89
2024/03/25 08:28:33;;;;;;;9.70;2.25;;;8.60;99.90;;;;;;5052830;28;20040;-90
2024/03/25 08:30:58;;;;;;;13.77;2.78;;;8.60;99.90;;;;;;5064646;28;20122;-91
2024/03/25 08:33:24;;;;;;;11.00;2.63;;;8.60;99.90;;;;;;5055018;28;20075;-90
2024/03/25 08:35:50;;;;;;;16.00;3.40;;;8.60;99.90;;;;;;5054511;28;20048;-91
2024/03/25 08:38:16;;;;;;;11.75;2.78;;;8.60;99.90;;;;;;5055129;28;20040;-89
2024/03/25 08:40:51;;;;;;;11.10;2.78;;;8.60;99.90;;;;;;5050332;28;20079;-92
2024/03/25 08:43:17;;;;;;;11.45;3.25;;;8.50;99.90;;;;;;5068014;28;20037;-90
2024/03/25 08:45:44;;;;;;;10.55;2.60;;;8.50;99.90;;;;;;5052964;28;20046;-90
2024/03/25 08:48:14;;;;;;;10.68;2.38;;;8.50;99.90;;;;;;5071534;28;20067;-90
2024/03/25 08:50:42;;;;;;;11.77;3.20;;;8.50;99.90;;;;;;5072238;28;20484;-92
2024/03/25 08:53:08;;;;;;;11.27;3.35;;;8.40;99.90;;;;;;5055612;28;20053;-90
2024/03/25 08:55:36;;;;;;;11.82;2.70;;;8.30;99.90;;;;;;5067233;28;20068;-90
2024/03/25 08:58:17;;;;;;;13.13;2.60;;;8.20;99.90;;;;;;5055795;28;20486;-91
2024/03/25 09:00:47;;;;;;;19.00;3.20;;;8.10;99.90;;;;;;5050966;28;20055;-91
2024/03/25 09:03:13;;;;;;;11.27;2.72;;;8.20;99.90;;;;;;5071013;28;20048;-90
2024/03/25 09:05:41;;;;;;;11.82;3.28;;;8.30;99.90;;;;;;5068464;28;20037;-91
2024/03/25 09:08:11;;;;;;;13.07;2.78;;;8.60;99.90;;;;;;5070325;28;20064;-91
2024/03/25 09:11:07;;;;;;;;;;;8.80;99.90;;;;;;5066260;28;20072;-90
2024/03/25 09:13:32;;;;;;;11.00;2.90;;;9.00;99.90;;;;;;5067027;28;19928;-91
2024/03/25 09:16:11;;;;;;;16.92;3.35;;;9.20;99.90;;;;;;5069413;28;20044;-91
2024/03/25 09:18:47;;;;;;;9.30;2.10;;;9.40;99.90;;;;;;5049941;28;20040;-91
2024/03/25 09:21:13;;;;;;;13.20;3.05;;;9.60;99.90;;;;;;5066544;28;20135;-91
2024/03/25 09:23:40;;;;;;;11.00;3.42;;;9.60;99.90;;;;;;5052410;28;20032;-90
2024/03/25 09:26:07;;;;;;;11.88;2.50;;;9.60;99.90;;;;;;5051859;28;20036;-89
2024/03/25 09:28:32;;;;;;;12.43;2.63;;;9.60;99.90;;;;;;5049967;28;20044;-88
2024/03/25 09:30:58;;;;;;;10.52;2.30;;;9.50;99.90;;;;;;5068408;28;20051;-90
2024/03/25 09:33:25;;;;;;;9.13;2.03;;;9.60;99.90;;;;;;5055116;28;20040;-92
2024/03/25 09:35:51;;;;;;;12.18;2.83;;;9.70;99.90;;;;;;5054178;28;20550;-90
2024/03/25 09:38:17;;;;;;;10.93;2.30;;;9.80;99.90;;;;;;5067923;28;20052;-91
2024/03/25 09:40:57;;;;;;;12.23;2.95;;;9.90;99.90;;;;;;5069644;28;20528;-90
2024/03/25 09:43:45;;;;;;;10.80;2.05;;;10.00;99.90;;;;;;5065909;28;20044;-91
2024/03/25 09:46:14;;;;;;;9.13;1.88;;;10.00;99.90;;;;;;5069416;28;20040;-90
2024/03/25 09:48:41;;;;;;;11.27;2.38;;;9.90;99.90;;;;;;5051061;28;20223;-91
2024/03/25 09:51:14;;;;;;;11.93;2.42;;;9.80;99.90;;;;;;5053912;28;20048;-91
2024/03/25 09:53:47;;;;;;;12.38;2.28;;;9.80;99.90;;;;;;5069116;28;20037;-90
2024/03/25 09:56:15;;;;;;;10.50;2.60;;;9.70;99.90;;;;;;5054862;28;20045;-92
2024/03/25 09:58:43;;;;;;;10.80;2.60;;;9.70;99.90;;;;;;5066901;28;20048;-91
2024/03/25 10:01:09;;;;;;;12.80;3.35;;;9.60;99.90;;;;;;5062506;28;20749;-90
2024/03/25 10:03:35;;;;;;;11.55;3.22;;;9.50;99.90;;;;;;5068923;28;20086;-91
2024/03/25 10:06:01;;;;;;;10.68;2.40;;;9.50;99.90;;;;;;5048682;28;20037;-91
2024/03/25 10:08:30;;;;;;;16.23;2.97;;;9.50;99.90;;;;;;5063208;28;20059;-91
2024/03/25 10:10:55;;;;;;;16.23;3.83;;;9.40;99.90;;;;;;5049439;28;20595;-91
2024/03/25 10:13:26;;;;;;;12.55;2.95;;;9.40;99.90;;;;;;5063636;28;20051;-90
2024/03/25 10:15:51;;;;;;;13.05;2.92;;;9.40;99.90;;;;;;5066066;28;20040;-93
2024/03/25 10:18:17;;;;;;;9.23;2.50;;;9.40;99.90;;;;;;5048657;28;20162;-91
2024/03/25 10:20:53;;;;;;;9.25;2.47;;;9.50;99.90;;;;;;5049071;28;20044;-92
2024/03/25 10:23:25;;;;;;;9.35;2.70;;;9.30;99.90;;;;;;5065901;28;20049;-91
2024/03/25 10:26:04;;;;;;;12.18;3.25;;;9.40;99.90;;;;;;5063755;28;20048;-90
2024/03/25 10:28:29;;;;;;;10.75;2.33;;;9.30;99.90;;;;;;5053088;28;20052;-91
2024/03/25 10:31:06;;;;;;;12.23;2.75;;;9.30;99.90;;;;;;5052125;28;20036;-92
2024/03/25 10:33:33;;;;;;;10.23;2.10;;;9.30;99.90;;;;;;5069094;28;20093;-91
2024/03/25 10:36:03;;;;;;;7.50;2.08;;;9.20;99.90;;;;;;5052136;28;20074;-91
2024/03/25 10:38:33;;;;;;;10.10;2.50;;;9.20;99.90;;;;;;5053108;28;20045;-90
2024/03/25 10:41:06;;;;;;;8.93;2.13;;;9.20;99.90;;;;;;5063350;28;20059;-91
2024/03/25 10:43:33;;;;;;;7.03;2.25;;;9.30;99.90;;;;;;5063667;28;20041;-91
2024/03/25 10:45:59;;;;;;;8.02;2.40;;;9.50;99.90;;;;;;5065951;28;20120;-91
2024/03/25 10:48:28;;;;;;;8.38;2.17;;;9.60;99.90;;;;;;5052617;28;20493;-91
2024/03/25 10:51:02;;;;;;;7.70;2.22;;;9.70;99.90;;;;;;5068011;28;20393;-91
2024/03/25 10:53:32;;;;;;;11.52;2.35;;;9.90;99.90;;;;;;5054609;28;20041;-91
2024/03/25 10:56:04;;;;;;;11.30;2.55;;;10.10;99.90;;;;;;5051852;28;20470;-90
2024/03/25 10:58:33;;;;;;;10.18;2.55;;;10.30;99.90;;;;;;5068328;28;20040;-91
2024/03/25 11:01:04;;;;;;;11.20;2.60;;;10.40;99.90;;;;;;5068898;28;20068;-91
2024/03/25 11:03:35;;;;;;;9.35;2.00;;;10.60;99.90;;;;;;5051381;28;20493;-91
2024/03/25 11:06:01;;;;;;;10.10;2.00;;;10.60;99.90;;;;;;5065217;28;20076;-92
2024/03/25 11:08:35;;;;;;;10.18;2.42;;;10.70;99.90;;;;;;5050309;28;20074;-91
2024/03/25 11:11:00;;;;;;;8.95;2.60;;;10.70;99.90;;;;;;5063906;28;20143;-89
2024/03/25 11:13:38;;;;;;;8.90;1.83;;;10.80;99.90;;;;;;5053800;28;20083;-90
2024/03/25 11:16:04;;;;;;;9.25;2.15;;;10.90;99.90;;;;;;5051045;28;20123;-91
2024/03/25 11:18:31;;;;;;;9.00;2.15;;;10.90;99.90;;;;;;5068530;28;20079;-90
2024/03/25 11:21:05;;;;;;;11.25;1.88;;;11.00;99.90;;;;;;5048899;28;20105;-93
2024/03/25 11:23:50;;;;;;;12.27;2.97;;;11.20;99.90;;;;;;5083153;28;20044;-91
2024/03/25 11:26:24;;;;;;;13.85;2.97;;;11.40;99.90;;;;;;5065560;28;20115;-91
2024/03/25 11:28:57;;;;;;;8.82;2.20;;;11.50;99.90;;;;;;5078851;28;20102;-92
2024/03/25 11:31:27;;;;;;;9.10;1.92;;;11.50;99.90;;;;;;5051771;28;20053;-90
2024/03/25 11:33:54;;;;;;;10.30;1.90;;;11.50;99.90;;;;;;5048512;28;20052;-86
2024/03/25 11:36:24;;;;;;;7.47;1.70;;;11.50;99.90;;;;;;5067137;28;20097;-90
2024/03/25 11:39:05;;;;;;;8.68;2.30;;;11.60;99.90;;;;;;5053084;28;20056;-91
2024/03/25 11:41:35;;;;;;;8.55;2.40;;;11.60;99.90;;;;;;5082684;28;20105;-90
2024/03/25 11:44:01;;;;;;;6.93;1.80;;;11.70;99.90;;;;;;5054754;28;20120;-91
2024/03/25 11:46:27;;;;;;;7.50;1.67;;;11.70;99.90;;;;;;5071050;28;20036;-91
2024/03/25 11:48:53;;;;;;;9.82;2.28;;;11.60;99.90;;;;;;5071645;28;20462;-89
2024/03/25 11:51:20;;;;;;;9.27;2.25;;;11.50;99.90;;;;;;5070697;28;20032;-89
2024/03/25 11:53:46;;;;;;;8.68;2.22;;;11.40;99.90;;;;;;5051385;28;20481;-90
2024/03/25 11:56:13;;;;;;;9.88;2.20;;;11.30;99.90;;;;;;5055590;28;20043;-90
2024/03/25 11:58:39;;;;;;;10.88;1.70;;;11.20;99.90;;;;;;5055357;28;20086;-90
2024/03/25 12:01:12;;;;;;;8.40;2.05;;;11.10;99.90;;;;;;5068119;28;20049;-91
2024/03/25 12:03:41;;;;;;;9.73;2.03;;;11.00;99.90;;;;;;5057880;28;20036;-91
2024/03/25 12:06:10;;;;;;;10.45;2.38;;;10.80;99.90;;;;;;5069279;28;20150;-90
2024/03/25 12:08:44;;;;;;;10.75;2.45;;;10.80;99.90;;;;;;5068622;28;20499;-91
2024/03/25 12:11:19;;;;;;;9.30;2.00;;;10.50;99.90;;;;;;5054761;28;20048;-90
2024/03/25 12:13:47;;;;;;;6.75;2.28;;;10.30;99.90;;;;;;5070443;28;20040;-90
2024/03/25 12:16:13;;;;;;;9.95;2.33;;;10.10;99.90;;;;;;5056993;28;21240;-90
2024/03/25 12:18:43;;;;;;;7.50;2.08;;;10.00;99.90;;;;;;5052933;28;20135;-90
2024/03/25 12:21:11;;;;;;;8.52;2.08;;;9.90;99.90;;;;;;5083552;28;20493;-90
2024/03/25 12:23:37;;;;;;;8.25;2.17;;;10.00;99.90;;;;;;5053832;28;20045;-91
2024/03/25 12:26:04;;;;;;;7.57;1.70;;;10.00;99.90;;;;;;5071548;28;20041;-91
2024/03/25 12:28:37;;;;;;;8.75;2.00;;;10.00;99.90;;;;;;5066407;28;20130;-90
2024/03/25 12:31:14;;;;;;;7.50;2.00;;;9.90;99.90;;;;;;5069548;28;20060;-90
2024/03/25 12:33:46;;;;;;;7.40;1.95;;;9.90;99.90;;;;;;5056599;28;20094;-91
2024/03/25 12:36:12;;;;;;;9.23;2.28;;;9.90;99.90;;;;;;5070457;28;20045;-90
2024/03/25 12:38:38;;;;;;;9.05;2.10;;;9.90;99.90;;;;;;5054294;28;20066;-90
2024/03/25 12:41:06;;;;;;;7.95;1.98;;;9.90;99.90;;;;;;5066667;28;20078;-90
2024/03/25 12:43:32;;;;;;;9.48;2.17;;;9.90;99.90;;;;;;5053534;28;20079;-90
2024/03/25 12:45:59;;;;;;;8.15;2.40;;;9.90;99.90;;;;;;5067872;28;20072;-91
2024/03/25 12:48:25;;;;;;;8.82;2.00;;;10.00;99.90;;;;;;5051975;28;20061;-91
2024/03/25 12:50:53;;;;;;;10.73;2.33;;;10.00;99.90;;;;;;5051446;28;20516;-90
2024/03/25 12:53:19;;;;;;;9.27;1.90;;;10.10;99.90;;;;;;5051368;28;20048;-91